Furenas — OZ2085 — position and weather

sailwx.info

Track history (hours):
 
Tides and Currents Weather Stations Pressure Air Temp Water Temp Dewpoint Dewpoint Depression Visibility Wind Speed Wind Dir Waves Ship Positions

Furenas

Last reported at 2015-Sep-03 11:33 UTC. Time now 2015-Sep-03 15:17 UTC.
Position N 51°58' E 004°02'.

Length 137 m; draft 6.5 m.

Type: Tanker. MMSI: 231734000.

Date/timePositionNaut miles runAvg speedWind from/ knotsBaromVisibWave heightAir tempDewpointWater temp
2015-Sep-03 11:33N 51°58' E 004°02'2 1.7
2015-Sep-03 10:33N 51°59' E 004°02'1110.9
2015-Sep-03 09:33N 52°02' E 003°45'6 0.6
2015-Sep-02 23:21N 52°08' E 003°40'1 0.1
2015-Sep-02 04:24N 52°08' E 003°41'1110.4
2015-Sep-02 03:23N 52°18' E 003°47'1111.8
2015-Sep-02 02:27N 52°29' E 003°51'910.5
2015-Sep-02 01:33N 52°31' E 004°06'1211.8
2015-Sep-02 00:33N 52°29' E 004°25'7 7.2
2015-Sep-01 23:33N 52°28' E 004°37'4 3.8
2015-Sep-01 22:33N 52°26' E 004°42'4 3.5
2015-Sep-01 21:33N 52°24' E 004°47'0 0.0
2015-Aug-31 17:33N 52°24' E 004°47'2 1.7
2015-Aug-31 16:33N 52°26' E 004°46'6 6.2
2015-Aug-31 15:33N 52°28' E 004°36'2 2.4
2015-Aug-31 14:33N 52°28' E 004°33'9 8.6
2015-Aug-31 13:34N 52°28' E 004°18'6 5.6
2015-Aug-31 12:29N 52°28' E 004°09'0 0.0
2015-Aug-31 11:29N 52°28' E 004°09'0 0.0
2015-Aug-31 10:20N 52°28' E 004°09'0 0.0
2015-Aug-31 09:32N 52°28' E 004°09'0 0.0
2015-Aug-31 08:32N 52°28' E 004°09'0 0.0
2015-Aug-31 07:32N 52°28' E 004°09'0 0.1
2015-Aug-31 06:29N 52°28' E 004°09'0 0.0
2015-Aug-31 05:32N 52°28' E 004°09'0 0.0
2015-Aug-31 04:32N 52°28' E 004°09'0 0.0
2015-Aug-31 03:32N 52°28' E 004°09'0 0.0
2015-Aug-31 02:32N 52°28' E 004°09'0 0.1
2015-Aug-31 01:32N 52°28' E 004°09'6 6.0
2015-Aug-31 00:33N 52°34' E 004°06'1211.6
2015-Aug-30 23:33N 52°45' E 003°60'8111.5
2015-Aug-30 16:33N 53°58' E 004°54'1211.9
2015-Aug-30 15:32N 54°09' E 005°03'6112.2
2015-Aug-30 10:33N 55°00' E 005°60'1713.6
2015-Aug-30 09:17N 55°15' E 006°16'1010.0
2015-Aug-30 08:14N 55°24' E 006°24'812.1
2015-Aug-30 07:33N 55°31' E 006°33'8812.1
2015-Aug-30 00:17N 56°46' E 007°55'912.1
2015-Aug-29 23:33N 56°53' E 008°04'1212.1
2015-Aug-29 22:32N 57°03' E 008°16'8711.7
2015-Aug-29 15:07N 57°49' E 010°33'611.4
2015-Aug-29 14:33N 57°48' E 010°45'1212.1
2015-Aug-29 13:33N 57°43' E 011°05'8 8.4
2015-Aug-29 12:33N 57°39' E 011°20'8 8.0
2015-Aug-29 11:33N 57°36' E 011°33'9 8.8
2015-Aug-29 10:33N 57°40' E 011°47'3 3.0
2015-Aug-29 09:31N 57°41' E 011°52'0 0.0
2015-Aug-28 07:34N 57°41' E 011°52'7 7.1
2015-Aug-28 06:34N 57°38' E 011°41'10 9.5
2015-Aug-28 05:33N 57°39' E 011°23'6 6.1
2015-Aug-28 04:33N 57°42' E 011°13'1010.4
2015-Aug-28 03:33N 57°46' E 010°56'1110.0
2015-Aug-28 02:29N 57°49' E 010°36'13112.7
2015-Aug-27 16:12N 56°26' E 007°30'913.1
2015-Aug-27 15:33N 56°19' E 007°22'1313.1
2015-Aug-27 14:32N 56°07' E 007°10'4213.1
2015-Aug-27 11:18N 55°31' E 006°32'8812.5
2015-Aug-27 04:19N 54°15' E 005°16'911.9
2015-Aug-27 03:33N 54°07' E 005°09'1212.1
2015-Aug-27 02:32N 53°55' E 005°01'1212.1
2015-Aug-27 01:31N 53°43' E 004°55'1212.3
2015-Aug-27 00:33N 53°32' E 004°48'1312.3
2015-Aug-26 23:32N 53°21' E 004°39'1612.1
2015-Aug-26 22:13N 53°07' E 004°28'812.0
2015-Aug-26 21:33N 52°59' E 004°21'1212.0
2015-Aug-26 20:33N 52°49' E 004°12'1211.7
2015-Aug-26 19:33N 52°38' E 004°06'1010.4
2015-Aug-26 18:33N 52°30' E 004°18'1110.9
2015-Aug-26 17:33N 52°28' E 004°35'1 1.4
2015-Aug-26 16:33N 52°28' E 004°38'2 2.0
2015-Aug-26 15:34N 52°27' E 004°41'3 2.9
2015-Aug-26 14:34N 52°26' E 004°45'2 1.6
2015-Aug-26 13:29N 52°24' E 004°46'0 0.0
2015-Aug-25 03:33N 52°24' E 004°46'3 3.1
2015-Aug-25 02:34N 52°26' E 004°42'4 4.1
2015-Aug-25 01:33N 52°28' E 004°36'7 7.4
2015-Aug-25 00:34N 52°29' E 004°24'8 7.7
2015-Aug-24 23:33N 52°29' E 004°12'  
Track history (hours):
 
Tides and Currents Weather Stations Pressure Air Temp Water Temp Dewpoint Dewpoint Depression Visibility Wind Speed Wind Dir Waves Ship Positions

Furenas

Last reported at 2015-Sep-03 11:33 UTC. Time now 2015-Sep-03 15:17 UTC.
Position N 51°58' E 004°02'.

Length 137 m; draft 6.5 m.

Type: Tanker. MMSI: 231734000.

Date/timePositionNaut miles runAvg speedWind from/ knotsBaromVisibWave heightAir tempDewpointWater temp
2015-Sep-03 11:33N 51°58' E 004°02'2 1.7
2015-Sep-03 10:33N 51°59' E 004°02'1110.9
2015-Sep-03 09:33N 52°02' E 003°45'6 0.6
2015-Sep-02 23:21N 52°08' E 003°40'1 0.1
2015-Sep-02 04:24N 52°08' E 003°41'1110.4
2015-Sep-02 03:23N 52°18' E 003°47'1111.8
2015-Sep-02 02:27N 52°29' E 003°51'910.5
2015-Sep-02 01:33N 52°31' E 004°06'1211.8
2015-Sep-02 00:33N 52°29' E 004°25'7 7.2
2015-Sep-01 23:33N 52°28' E 004°37'4 3.8
2015-Sep-01 22:33N 52°26' E 004°42'4 3.5
2015-Sep-01 21:33N 52°24' E 004°47'0 0.0
2015-Aug-31 17:33N 52°24' E 004°47'2 1.7
2015-Aug-31 16:33N 52°26' E 004°46'6 6.2
2015-Aug-31 15:33N 52°28' E 004°36'2 2.4
2015-Aug-31 14:33N 52°28' E 004°33'9 8.6
2015-Aug-31 13:34N 52°28' E 004°18'6 5.6
2015-Aug-31 12:29N 52°28' E 004°09'0 0.0
2015-Aug-31 11:29N 52°28' E 004°09'0 0.0
2015-Aug-31 10:20N 52°28' E 004°09'0 0.0
2015-Aug-31 09:32N 52°28' E 004°09'0 0.0
2015-Aug-31 08:32N 52°28' E 004°09'0 0.0
2015-Aug-31 07:32N 52°28' E 004°09'0 0.1
2015-Aug-31 06:29N 52°28' E 004°09'0 0.0
2015-Aug-31 05:32N 52°28' E 004°09'0 0.0
2015-Aug-31 04:32N 52°28' E 004°09'0 0.0
2015-Aug-31 03:32N 52°28' E 004°09'0 0.0
2015-Aug-31 02:32N 52°28' E 004°09'0 0.1
2015-Aug-31 01:32N 52°28' E 004°09'6 6.0
2015-Aug-31 00:33N 52°34' E 004°06'1211.6
2015-Aug-30 23:33N 52°45' E 003°60'8111.5
2015-Aug-30 16:33N 53°58' E 004°54'1211.9
2015-Aug-30 15:32N 54°09' E 005°03'6112.2
2015-Aug-30 10:33N 55°00' E 005°60'1713.6
2015-Aug-30 09:17N 55°15' E 006°16'1010.0
2015-Aug-30 08:14N 55°24' E 006°24'812.1
2015-Aug-30 07:33N 55°31' E 006°33'8812.1
2015-Aug-30 00:17N 56°46' E 007°55'912.1
2015-Aug-29 23:33N 56°53' E 008°04'1212.1
2015-Aug-29 22:32N 57°03' E 008°16'8711.7
2015-Aug-29 15:07N 57°49' E 010°33'611.4
2015-Aug-29 14:33N 57°48' E 010°45'1212.1
2015-Aug-29 13:33N 57°43' E 011°05'8 8.4
2015-Aug-29 12:33N 57°39' E 011°20'8 8.0
2015-Aug-29 11:33N 57°36' E 011°33'9 8.8
2015-Aug-29 10:33N 57°40' E 011°47'3 3.0
2015-Aug-29 09:31N 57°41' E 011°52'0 0.0
2015-Aug-28 07:34N 57°41' E 011°52'7 7.1
2015-Aug-28 06:34N 57°38' E 011°41'10 9.5
2015-Aug-28 05:33N 57°39' E 011°23'6 6.1
2015-Aug-28 04:33N 57°42' E 011°13'1010.4
2015-Aug-28 03:33N 57°46' E 010°56'1110.0
2015-Aug-28 02:29N 57°49' E 010°36'13112.7
2015-Aug-27 16:12N 56°26' E 007°30'913.1
2015-Aug-27 15:33N 56°19' E 007°22'1313.1
2015-Aug-27 14:32N 56°07' E 007°10'4213.1
2015-Aug-27 11:18N 55°31' E 006°32'8812.5
2015-Aug-27 04:19N 54°15' E 005°16'911.9
2015-Aug-27 03:33N 54°07' E 005°09'1212.1
2015-Aug-27 02:32N 53°55' E 005°01'1212.1
2015-Aug-27 01:31N 53°43' E 004°55'1212.3
2015-Aug-27 00:33N 53°32' E 004°48'1312.3
2015-Aug-26 23:32N 53°21' E 004°39'1612.1
2015-Aug-26 22:13N 53°07' E 004°28'812.0
2015-Aug-26 21:33N 52°59' E 004°21'1212.0
2015-Aug-26 20:33N 52°49' E 004°12'1211.7
2015-Aug-26 19:33N 52°38' E 004°06'1010.4
2015-Aug-26 18:33N 52°30' E 004°18'1110.9
2015-Aug-26 17:33N 52°28' E 004°35'1 1.4
2015-Aug-26 16:33N 52°28' E 004°38'2 2.0
2015-Aug-26 15:34N 52°27' E 004°41'3 2.9
2015-Aug-26 14:34N 52°26' E 004°45'2 1.6
2015-Aug-26 13:29N 52°24' E 004°46'0 0.0
2015-Aug-25 03:33N 52°24' E 004°46'3 3.1
2015-Aug-25 02:34N 52°26' E 004°42'4 4.1
2015-Aug-25 01:33N 52°28' E 004°36'7 7.4
2015-Aug-25 00:34N 52°29' E 004°24'8 7.7
2015-Aug-24 23:33N 52°29' E 004°12'  

Dump ship's entire track history